Time;durP1;ratioP1;P1;durP2;ratioP2;P2;SDS_P1;SDS_P2;PMS_P1;PMS_P2;Temp;Humidity;BMP_temperature;BMP_pressure;BME280_temperature;BME280_humidity;BME280_pressure;Samples;Min_cycle;Max_cycle;Signal;HPM_P1;HPM_P2
2022/06/29 00:03:41;;;;;;;13.77;7.75;;;;;21.70;96297.00;;;;8356496;28;20233;-66
2022/06/29 00:07:46;;;;;;;8.73;7.55;;;;;21.70;96305.00;;;;8354775;28;20231;-69
2022/06/29 00:11:49;;;;;;;12.32;8.10;;;;;21.60;96297.00;;;;8356840;28;20288;-67
2022/06/29 00:15:54;;;;;;;8.63;7.72;;;;;21.60;96288.00;;;;8356845;28;20923;-66
2022/06/29 00:19:58;;;;;;;10.00;7.40;;;;;21.60;96305.00;;;;8356230;28;20714;-67
2022/06/29 00:24:01;;;;;;;10.63;7.97;;;;;21.60;96284.00;;;;8356239;28;20708;-67
2022/06/29 00:28:05;;;;;;;10.13;9.05;;;;;21.50;96290.00;;;;8355876;28;20319;-68
2022/06/29 00:32:10;;;;;;;12.32;9.77;;;;;21.50;96280.00;;;;8353596;28;20193;-67
2022/06/29 00:36:13;;;;;;;12.60;8.63;;;;;21.50;96289.00;;;;8355684;28;20192;-68
2022/06/29 00:40:17;;;;;;;11.80;8.80;;;;;21.50;96304.00;;;;8357284;28;20717;-66
2022/06/29 00:44:21;;;;;;;10.65;9.10;;;;;21.50;96310.00;;;;8356557;28;20569;-67
2022/06/29 00:48:26;;;;;;;11.02;8.93;;;;;21.50;96298.00;;;;8355120;28;20757;-66
2022/06/29 00:52:30;;;;;;;11.23;10.02;;;;;21.50;96297.00;;;;8354318;28;20715;-67
2022/06/29 00:56:33;;;;;;;10.20;9.13;;;;;21.40;96294.00;;;;8359257;28;20205;-68
2022/06/29 01:00:37;;;;;;;10.68;9.38;;;;;21.30;96276.00;;;;8354082;28;20201;-68
2022/06/29 01:04:43;;;;;;;15.50;10.27;;;;;21.20;96273.00;;;;8353637;28;20323;-69
2022/06/29 01:08:46;;;;;;;15.27;10.40;;;;;21.10;96273.00;;;;8356723;28;20258;-68
2022/06/29 01:12:49;;;;;;;14.48;11.10;;;;;20.90;96270.00;;;;8353860;28;20275;-66
2022/06/29 01:16:52;;;;;;;14.70;11.18;;;;;20.70;96253.00;;;;8357113;28;20798;-66
2022/06/29 01:20:57;;;;;;;14.10;10.93;;;;;20.50;96221.00;;;;8354323;28;20794;-66
2022/06/29 01:25:02;;;;;;;14.80;12.20;;;;;20.40;96221.00;;;;8354106;28;20203;-67
2022/06/29 01:29:05;;;;;;;19.67;12.25;;;;;20.30;96222.00;;;;8354123;28;20228;-69
2022/06/29 01:33:09;;;;;;;18.60;12.07;;;;;20.20;96233.00;;;;8354842;28;20243;-66
2022/06/29 01:37:13;;;;;;;18.40;12.00;;;;;20.10;96223.00;;;;8353622;28;20199;-66
2022/06/29 01:41:17;;;;;;;16.75;11.70;;;;;20.10;96212.00;;;;8353343;28;20197;-66
2022/06/29 01:45:20;;;;;;;16.98;12.27;;;;;20.00;96213.00;;;;8346778;28;20193;-69
2022/06/29 01:49:25;;;;;;;15.80;12.18;;;;;20.10;96214.00;;;;8351653;28;20228;-68
2022/06/29 01:53:29;;;;;;;18.35;11.90;;;;;20.10;96209.00;;;;8352469;28;20285;-69
2022/06/29 01:57:33;;;;;;;18.33;12.38;;;;;20.00;96192.00;;;;8351434;28;20197;-67
2022/06/29 02:01:36;;;;;;;18.52;12.57;;;;;20.00;96200.00;;;;8353379;28;20197;-69
2022/06/29 02:05:40;;;;;;;15.77;11.88;;;;;20.10;96214.00;;;;8349263;28;20224;-67
2022/06/29 02:09:43;;;;;;;15.25;12.43;;;;;20.10;96210.00;;;;8351454;28;20284;-70
2022/06/29 02:13:53;;;;;;;19.00;12.30;;;;;20.20;96210.00;;;;8354766;28;20258;-67
2022/06/29 02:17:56;;;;;;;16.85;12.25;;;;;20.20;96206.00;;;;8348132;28;20207;-67
2022/06/29 02:21:59;;;;;;;18.00;12.75;;;;;20.20;96200.00;;;;8352241;28;20276;-66
2022/06/29 02:26:03;;;;;;;20.00;12.70;;;;;20.20;96193.00;;;;8351916;28;20208;-68
2022/06/29 02:30:09;;;;;;;16.88;12.18;;;;;20.10;96201.00;;;;8353139;28;20323;-67
2022/06/29 02:38:32;;;;;;;14.13;11.35;;;;;20.10;96201.00;;;;8350200;28;20291;-67
2022/06/29 02:42:35;;;;;;;17.85;11.98;;;;;20.00;96196.00;;;;8353712;28;20212;-68
2022/06/29 02:47:00;;;;;;;18.50;11.57;;;;;20.00;96183.00;;;;8346701;28;20270;-67
2022/06/29 02:51:03;;;;;;;15.85;12.40;;;;;19.90;96176.00;;;;8350397;28;20283;-67
2022/06/29 02:55:07;;;;;;;19.40;11.70;;;;;19.90;96187.00;;;;8355108;28;20716;-69
2022/06/29 02:59:11;;;;;;;20.80;12.23;;;;;19.90;96189.00;;;;8360690;28;20295;-67
2022/06/29 03:03:15;;;;;;;18.73;12.10;;;;;19.90;96182.00;;;;8387960;22;20332;-69
2022/06/29 03:07:19;;;;;;;16.17;11.70;;;;;19.90;96178.00;;;;8350658;28;20255;-67
2022/06/29 03:11:22;;;;;;;15.65;10.82;;;;;19.80;96195.00;;;;8354291;28;20282;-66
2022/06/29 03:15:26;;;;;;;21.42;11.52;;;;;19.80;96199.00;;;;8349155;28;20219;-68
2022/06/29 03:19:30;;;;;;;15.55;10.60;;;;;19.80;96204.00;;;;8361824;28;20288;-68
2022/06/29 03:23:34;;;;;;;16.30;10.57;;;;;19.80;96217.00;;;;8345416;28;20233;-68
2022/06/29 03:27:37;;;;;;;19.25;10.75;;;;;19.70;96228.00;;;;8343974;28;20235;-67
2022/06/29 03:31:40;;;;;;;18.67;10.60;;;;;19.70;96213.00;;;;8347966;28;20207;-66
2022/06/29 03:35:45;;;;;;;18.65;11.00;;;;;19.70;96200.00;;;;8353505;28;20239;-68
2022/06/29 03:39:48;;;;;;;13.68;9.77;;;;;19.60;96196.00;;;;8343550;28;20650;-68
2022/06/29 03:43:51;;;;;;;13.65;9.80;;;;;19.70;96206.00;;;;8356808;28;20287;-68
2022/06/29 03:47:54;;;;;;;17.73;10.32;;;;;19.70;96192.00;;;;8347456;28;20304;-67
2022/06/29 03:51:59;;;;;;;16.10;10.68;;;;;19.80;96188.00;;;;8357161;28;20189;-68
2022/06/29 03:56:02;;;;;;;20.58;10.55;;;;;19.80;96191.00;;;;8353506;28;20307;-70
2022/06/29 04:00:07;;;;;;;16.70;10.35;;;;;19.90;96184.00;;;;8352352;28;20215;-68
2022/06/29 04:04:10;;;;;;;14.38;10.55;;;;;20.00;96173.00;;;;8346347;28;20351;-68
2022/06/29 04:08:14;;;;;;;14.82;10.13;;;;;20.10;96187.00;;;;8353971;28;20312;-67
2022/06/29 04:12:18;;;;;;;12.77;9.82;;;;;20.10;96179.00;;;;8354337;28;20844;-67
2022/06/29 04:16:21;;;;;;;16.83;10.50;;;;;20.10;96163.00;;;;8353553;28;20287;-68
2022/06/29 04:24:46;;;;;;;12.45;9.93;;;;;20.10;96175.00;;;;8349210;28;20689;-66
2022/06/29 04:28:50;;;;;;;16.88;9.88;;;;;20.20;96171.00;;;;8348809;28;20320;-67
2022/06/29 04:32:53;;;;;;;12.27;9.90;;;;;20.30;96171.00;;;;8352421;28;20204;-69
2022/06/29 04:36:56;;;;;;;16.65;9.98;;;;;20.30;96163.00;;;;8353793;28;20283;-68
2022/06/29 04:41:01;;;;;;;16.50;10.30;;;;;20.30;96174.00;;;;8352637;28;20208;-67
2022/06/29 04:45:05;;;;;;;13.90;9.88;;;;;20.30;96171.00;;;;8351222;28;20288;-67
2022/06/29 04:49:09;;;;;;;17.75;10.38;;;;;20.40;96173.00;;;;8354067;28;20231;-66
2022/06/29 04:53:12;;;;;;;13.15;10.30;;;;;20.40;96170.00;;;;8354226;28;20255;-68
2022/06/29 04:57:17;;;;;;;15.38;9.75;;;;;20.40;96173.00;;;;8353439;28;20223;-66
2022/06/29 05:01:21;;;;;;;13.68;10.57;;;;;20.50;96181.00;;;;8348209;28;20244;-67
2022/06/29 05:05:24;;;;;;;11.95;9.63;;;;;20.60;96188.00;;;;8353712;28;20193;-67
2022/06/29 05:09:27;;;;;;;15.15;10.93;;;;;20.70;96193.00;;;;8352348;28;20217;-67
2022/06/29 05:13:32;;;;;;;15.95;9.85;;;;;20.70;96201.00;;;;8351365;28;20201;-69
2022/06/29 05:17:37;;;;;;;13.85;10.52;;;;;20.70;96201.00;;;;8352621;28;20716;-67
2022/06/29 05:21:40;;;;;;;12.68;9.68;;;;;20.80;96208.00;;;;8353045;28;20215;-68
2022/06/29 05:25:44;;;;;;;12.05;9.82;;;;;20.80;96206.00;;;;8351550;28;20239;-68
2022/06/29 05:29:48;;;;;;;10.52;9.02;;;;;20.80;96207.00;;;;8352299;28;20311;-67
2022/06/29 05:33:51;;;;;;;17.15;9.25;;;;;20.80;96209.00;;;;8351504;28;20203;-67
2022/06/29 05:37:55;;;;;;;14.95;10.30;;;;;20.70;96205.00;;;;8351285;28;20868;-68
2022/06/29 05:41:58;;;;;;;12.30;9.27;;;;;20.70;96209.00;;;;8350102;28;20243;-68
2022/06/29 05:46:03;;;;;;;15.90;10.05;;;;;20.60;96207.00;;;;8350631;28;20258;-68
2022/06/29 05:50:10;;;;;;;11.40;9.25;;;;;20.60;96203.00;;;;8350417;28;20232;-67
2022/06/29 05:54:13;;;;;;;14.43;9.35;;;;;20.60;96199.00;;;;8352304;28;20645;-69
2022/06/29 05:58:19;;;;;;;13.90;9.43;;;;;20.60;96189.00;;;;8350958;28;20284;-69
2022/06/29 06:02:24;;;;;;;11.77;9.52;;;;;20.60;96194.00;;;;8349612;28;20224;-67
2022/06/29 06:06:27;;;;;;;17.15;9.98;;;;;20.60;96185.00;;;;8344151;28;20193;-66
2022/06/29 06:10:31;;;;;;;11.88;9.57;;;;;20.60;96183.00;;;;8350420;28;20239;-68
2022/06/29 06:14:34;;;;;;;12.60;9.13;;;;;20.70;96177.00;;;;8350680;28;20197;-69
2022/06/29 06:18:39;;;;;;;12.75;9.32;;;;;20.70;96170.00;;;;8351376;28;20193;-68
2022/06/29 06:22:42;;;;;;;11.38;8.68;;;;;20.70;96168.00;;;;8349318;28;20204;-67
2022/06/29 06:26:45;;;;;;;11.82;8.98;;;;;20.80;96174.00;;;;8350558;28;20321;-67
2022/06/29 06:30:48;;;;;;;10.13;8.52;;;;;20.80;96173.00;;;;8351932;28;20230;-69
2022/06/29 06:34:53;;;;;;;9.82;8.68;;;;;20.90;96156.00;;;;8349471;28;20197;-68
2022/06/29 06:38:57;;;;;;;12.93;7.93;;;;;21.10;96175.00;;;;8350982;28;20209;-69
2022/06/29 06:43:01;;;;;;;11.43;8.23;;;;;21.20;96182.00;;;;8347267;28;20255;-69
2022/06/29 06:47:04;;;;;;;10.10;8.55;;;;;21.20;96193.00;;;;8349856;28;20221;-66
2022/06/29 06:51:10;;;;;;;10.85;8.02;;;;;21.20;96198.00;;;;8351601;28;20224;-67
2022/06/29 06:55:14;;;;;;;14.90;8.43;;;;;21.20;96193.00;;;;8351531;28;20201;-68
2022/06/29 06:59:17;;;;;;;13.05;8.55;;;;;21.20;96202.00;;;;8349634;28;20224;-68
2022/06/29 07:03:20;;;;;;;10.93;8.70;;;;;21.20;96202.00;;;;8348382;28;20260;-67
2022/06/29 07:07:25;;;;;;;11.52;8.02;;;;;21.20;96205.00;;;;8348626;28;20204;-68
2022/06/29 07:11:28;;;;;;;12.82;8.48;;;;;21.20;96206.00;;;;8351190;28;20276;-67
2022/06/29 07:15:32;;;;;;;11.45;8.98;;;;;21.30;96218.00;;;;8346638;28;20200;-67
2022/06/29 07:19:35;;;;;;;12.45;8.65;;;;;21.40;96215.00;;;;8350035;28;20208;-67
2022/06/29 07:23:40;;;;;;;10.43;8.25;;;;;21.50;96217.00;;;;8342627;28;20194;-67
2022/06/29 07:27:43;;;;;;;12.43;9.18;;;;;21.60;96228.00;;;;8348096;28;20207;-70
2022/06/29 07:31:47;;;;;;;13.82;9.18;;;;;21.80;96223.00;;;;8346220;28;20193;-68
2022/06/29 07:35:50;;;;;;;12.30;9.05;;;;;21.90;96219.00;;;;8347314;28;20229;-67
2022/06/29 07:39:55;;;;;;;10.95;8.80;;;;;22.10;96218.00;;;;8343696;28;20208;-68
2022/06/29 07:44:15;;;;;;;11.20;7.95;;;;;22.20;96227.00;;;;8349246;28;20215;-69
2022/06/29 07:48:18;;;;;;;11.20;9.25;;;;;22.40;96232.00;;;;8351303;28;20249;-68
2022/06/29 07:52:22;;;;;;;14.00;8.07;;;;;22.40;96236.00;;;;8353282;28;20199;-68
2022/06/29 07:56:26;;;;;;;9.65;7.82;;;;;22.60;96233.00;;;;8354428;28;20209;-69
2022/06/29 08:00:30;;;;;;;10.60;7.70;;;;;22.90;96223.00;;;;8354194;28;20197;-68
2022/06/29 08:04:34;;;;;;;8.35;7.45;;;;;23.20;96231.00;;;;8352262;28;20247;-67
2022/06/29 08:08:58;;;;;;;11.07;8.15;;;;;23.40;96231.00;;;;8350343;28;20309;-67
2022/06/29 08:13:04;;;;;;;10.25;7.90;;;;;23.80;96220.00;;;;8353574;28;20197;-68
2022/06/29 08:17:07;;;;;;;9.00;7.30;;;;;24.20;96232.00;;;;8354101;28;20201;-68
2022/06/29 08:21:10;;;;;;;8.07;6.85;;;;;24.60;96228.00;;;;8352207;28;20277;-68
2022/06/29 08:25:14;;;;;;;8.15;7.32;;;;;24.80;96230.00;;;;8353645;28;20713;-68
2022/06/29 08:29:18;;;;;;;8.43;7.30;;;;;24.90;96227.00;;;;8345342;28;20221;-68
2022/06/29 08:33:22;;;;;;;7.72;6.72;;;;;24.90;96219.00;;;;8351603;28;20209;-68
2022/06/29 08:37:25;;;;;;;7.97;6.85;;;;;25.00;96211.00;;;;8351705;28;20315;-68
2022/06/29 08:41:30;;;;;;;8.60;6.85;;;;;25.60;96201.00;;;;8354160;28;20193;-68
2022/06/29 08:45:36;;;;;;;9.00;7.20;;;;;26.70;96208.00;;;;8345963;28;20196;-67
2022/06/29 08:49:39;;;;;;;10.57;7.05;;;;;27.30;96208.00;;;;8352085;28;20697;-67
2022/06/29 08:53:43;;;;;;;7.22;6.28;;;;;27.70;96207.00;;;;8351581;28;20291;-67
2022/06/29 08:57:46;;;;;;;9.55;7.00;;;;;27.90;96208.00;;;;8355372;28;20204;-68
2022/06/29 09:01:51;;;;;;;10.63;6.53;;;;;28.00;96201.00;;;;8351536;28;20772;-69
2022/06/29 09:05:56;;;;;;;8.60;7.15;;;;;28.30;96206.00;;;;8352254;28;20793;-69
2022/06/29 09:10:06;;;;;;;8.65;6.10;;;;;28.40;96200.00;;;;8345923;28;20209;-70
2022/06/29 09:14:11;;;;;;;12.23;6.10;;;;;28.60;96201.00;;;;8349799;28;20771;-78
2022/06/29 09:18:27;;;;;;;7.78;5.95;;;;;29.00;96197.00;;;;8352045;28;20203;-69
2022/06/29 09:22:30;;;;;;;12.65;6.50;;;;;29.30;96208.00;;;;8350324;28;20201;-70
2022/06/29 09:26:33;;;;;;;9.10;5.88;;;;;29.60;96207.00;;;;8352654;28;20203;-70
2022/06/29 09:30:40;;;;;;;12.80;6.00;;;;;30.00;96198.00;;;;8351550;28;20225;-70
2022/06/29 09:34:47;;;;;;;6.38;5.72;;;;;30.40;96194.00;;;;8351040;28;20200;-69
2022/06/29 09:38:50;;;;;;;7.40;5.32;;;;;30.40;96200.00;;;;8350086;28;20203;-70
2022/06/29 09:42:54;;;;;;;7.13;5.20;;;;;30.60;96202.00;;;;8349785;28;20650;-69
2022/06/29 09:46:58;;;;;;;10.32;5.88;;;;;31.00;96192.00;;;;8349117;28;20201;-70
2022/06/29 09:51:30;;;;;;;10.77;5.40;;;;;31.30;96194.00;;;;8347586;28;20260;-72
2022/06/29 09:55:28;;;;;;;7.57;5.38;;;;;31.00;96193.00;;;;8351256;28;20201;-71
2022/06/29 10:03:55;;;;;;;5.38;4.88;;;;;30.80;96187.00;;;;8346436;28;20772;-71
2022/06/29 10:08:00;;;;;;;7.57;5.13;;;;;30.50;96178.00;;;;8351836;28;20309;-71
2022/06/29 10:16:41;;;;;;;7.90;5.50;;;;;31.10;96186.00;;;;8349226;28;20205;-70
2022/06/29 10:20:47;;;;;;;7.78;5.80;;;;;31.10;96190.00;;;;8350195;28;20275;-71
2022/06/29 10:25:06;;;;;;;6.90;5.30;;;;;31.20;96196.00;;;;8350098;28;20654;-70
2022/06/29 10:29:31;;;;;;;8.60;4.90;;;;;30.60;96193.00;;;;8349738;28;20228;-71
2022/06/29 10:33:35;;;;;;;7.13;5.53;;;;;30.40;96185.00;;;;8351161;28;20279;-71
2022/06/29 10:37:49;;;;;;;7.53;5.18;;;;;30.30;96187.00;;;;8343886;28;20280;-70
2022/06/29 10:46:15;;;;;;;7.65;5.13;;;;;30.30;96185.00;;;;8350044;28;20211;-68
2022/06/29 10:50:23;;;;;;;8.45;4.78;;;;;30.30;96183.00;;;;8348869;28;20227;-71
2022/06/29 10:54:29;;;;;;;6.35;4.68;;;;;30.70;96169.00;;;;8349919;28;20255;-70
2022/06/29 10:58:35;;;;;;;6.57;5.13;;;;;31.90;96175.00;;;;8349420;28;20716;-71
2022/06/29 11:02:39;;;;;;;5.75;5.05;;;;;32.50;96172.00;;;;8346510;28;20796;-71
2022/06/29 11:15:41;;;;;;;8.73;5.07;;;;;32.00;96172.00;;;;8348275;28;20189;-71
2022/06/29 11:19:45;;;;;;;7.45;4.70;;;;;32.00;96170.00;;;;8351468;28;20279;-70
2022/06/29 11:23:56;;;;;;;7.88;5.20;;;;;31.60;96171.00;;;;8353633;28;20197;-69
2022/06/29 11:28:02;;;;;;;5.57;5.07;;;;;31.50;96173.00;;;;8357260;28;20898;-69
2022/06/29 11:32:07;;;;;;;7.28;5.20;;;;;31.30;96175.00;;;;8355186;28;20236;-74
2022/06/29 11:36:12;;;;;;;8.65;5.30;;;;;31.40;96165.00;;;;8354286;28;20208;-76
2022/06/29 11:40:18;;;;;;;6.50;4.75;;;;;31.80;96178.00;;;;8355634;28;20280;-74
2022/06/29 11:44:27;;;;;;;6.47;4.72;;;;;32.00;96172.00;;;;8352533;28;20239;-73
2022/06/29 11:49:33;;;;;;;13.35;5.85;;;;;32.30;96168.00;;;;8353940;28;20243;-72
2022/06/29 11:52:56;;;;;;;7.78;5.05;;;;;32.20;96169.00;;;;8353489;28;20313;-77
2022/06/29 11:56:59;;;;;;;11.40;5.63;;;;;32.50;96162.00;;;;8353294;28;20204;-73
2022/06/29 12:01:07;;;;;;;10.15;5.57;;;;;32.90;96166.00;;;;8351548;28;20283;-74
2022/06/29 12:05:11;;;;;;;7.93;4.50;;;;;33.20;96163.00;;;;8356099;28;20300;-76
2022/06/29 12:09:15;;;;;;;5.95;4.30;;;;;34.00;96168.00;;;;8354134;28;20203;-72
2022/06/29 12:13:18;;;;;;;8.70;4.20;;;;;35.00;96163.00;;;;8352941;28;20304;-74
2022/06/29 12:17:21;;;;;;;6.13;4.28;;;;;35.20;96157.00;;;;8351906;28;20557;-76
2022/06/29 12:21:26;;;;;;;7.97;5.18;;;;;34.90;96160.00;;;;8354635;28;20288;-73
2022/06/29 12:25:29;;;;;;;5.00;4.28;;;;;34.60;96157.00;;;;8350794;28;20618;-75
2022/06/29 12:29:33;;;;;;;5.20;4.72;;;;;34.40;96159.00;;;;8349465;28;20290;-76
2022/06/29 12:33:36;;;;;;;9.27;4.60;;;;;34.40;96165.00;;;;8351272;28;20760;-74
2022/06/29 12:37:43;;;;;;;7.72;4.55;;;;;34.50;96162.00;;;;8353899;28;20211;-75
2022/06/29 12:41:47;;;;;;;4.72;4.10;;;;;34.30;96164.00;;;;8352909;28;20193;-75
2022/06/29 12:45:50;;;;;;;6.90;5.15;;;;;34.10;96165.00;;;;8348922;28;20211;-74
2022/06/29 12:49:54;;;;;;;6.07;4.43;;;;;33.60;96167.00;;;;8347792;28;20305;-71
2022/06/29 12:53:59;;;;;;;10.43;4.70;;;;;33.20;96171.00;;;;8351895;28;20207;-70
2022/06/29 12:58:02;;;;;;;6.38;4.13;;;;;32.90;96170.00;;;;8352300;28;20295;-73
2022/06/29 13:02:06;;;;;;;7.05;4.80;;;;;32.80;96168.00;;;;8351190;28;20237;-74
2022/06/29 13:06:09;;;;;;;5.95;4.57;;;;;32.80;96171.00;;;;8352753;28;20204;-73
2022/06/29 13:10:14;;;;;;;6.15;4.78;;;;;32.40;96177.00;;;;8352878;28;20311;-73
2022/06/29 13:14:17;;;;;;;6.40;4.68;;;;;31.90;96177.00;;;;8352928;28;20226;-71
2022/06/29 13:18:23;;;;;;;11.25;4.70;;;;;31.80;96170.00;;;;8351826;28;20225;-73
2022/06/29 13:22:26;;;;;;;6.43;4.60;;;;;31.80;96176.00;;;;8348227;28;20209;-72
2022/06/29 13:26:31;;;;;;;9.57;5.68;;;;;31.60;96175.00;;;;8350307;28;20203;-71
2022/06/29 13:30:34;;;;;;;7.75;4.90;;;;;31.40;96177.00;;;;8351344;28;20228;-72
2022/06/29 13:34:41;;;;;;;6.78;4.70;;;;;31.30;96186.00;;;;8352120;28;20228;-74
2022/06/29 13:38:44;;;;;;;10.70;5.15;;;;;31.10;96189.00;;;;8351015;28;20633;-69
2022/06/29 13:42:49;;;;;;;8.13;4.78;;;;;30.90;96189.00;;;;8344062;28;20232;-70
2022/06/29 13:47:09;;;;;;;10.35;5.10;;;;;30.80;96185.00;;;;8349748;28;20527;-70
2022/06/29 13:51:13;;;;;;;10.98;5.00;;;;;30.40;96183.00;;;;8349394;28;20228;-70
2022/06/29 13:55:16;;;;;;;7.20;4.82;;;;;30.20;96178.00;;;;8350311;28;20650;-69
2022/06/29 13:59:40;;;;;;;9.45;4.88;;;;;30.10;96178.00;;;;8350176;28;20196;-69
2022/06/29 14:03:43;;;;;;;11.10;5.65;;;;;29.80;96175.00;;;;8351113;28;20621;-70
2022/06/29 14:07:46;;;;;;;7.63;4.82;;;;;29.00;96174.00;;;;8349492;28;20200;-71
2022/06/29 14:12:10;;;;;;;4.93;4.43;;;;;28.60;96170.00;;;;8348534;28;20277;-75
2022/06/29 14:16:17;;;;;;;7.03;4.55;;;;;28.60;96160.00;;;;8346917;28;20197;-70
2022/06/29 14:20:21;;;;;;;8.02;5.00;;;;;28.70;96161.00;;;;8349149;28;20744;-70
2022/06/29 14:24:24;;;;;;;12.93;4.80;;;;;29.10;96157.00;;;;8351230;28;20236;-70
2022/06/29 14:28:27;;;;;;;10.10;5.15;;;;;29.40;96155.00;;;;8349747;28;20296;-70
2022/06/29 14:32:32;;;;;;;8.88;4.38;;;;;29.60;96150.00;;;;8349462;28;20585;-69
2022/06/29 14:36:36;;;;;;;5.35;4.20;;;;;29.70;96155.00;;;;8338189;28;20242;-69
2022/06/29 14:40:39;;;;;;;12.63;4.00;;;;;29.80;96148.00;;;;8347267;28;20201;-68
2022/06/29 14:44:43;;;;;;;10.30;4.40;;;;;29.60;96142.00;;;;8348317;28;20208;-69
2022/06/29 14:48:47;;;;;;;7.47;4.45;;;;;29.60;96132.00;;;;8347887;28;20291;-69
2022/06/29 14:52:51;;;;;;;6.30;4.82;;;;;29.40;96130.00;;;;8350774;28;20216;-69
2022/06/29 14:56:54;;;;;;;6.88;4.43;;;;;29.20;96132.00;;;;8355618;28;20197;-69
2022/06/29 15:01:14;;;;;;;6.70;4.10;;;;;29.10;96127.00;;;;8358615;28;20612;-69
2022/06/29 15:05:19;;;;;;;8.70;4.45;;;;;29.20;96123.00;;;;8356085;28;20247;-70
2022/06/29 15:09:22;;;;;;;11.35;4.55;;;;;29.50;96114.00;;;;8357838;28;20251;-68
2022/06/29 15:13:30;;;;;;;9.43;4.65;;;;;29.80;96122.00;;;;8349741;28;20271;-70
2022/06/29 15:17:33;;;;;;;4.82;4.10;;;;;30.00;96112.00;;;;8356335;28;20205;-71
2022/06/29 15:21:38;;;;;;;5.68;4.05;;;;;30.20;96113.00;;;;8358335;28;20491;-69
2022/06/29 15:25:42;;;;;;;8.85;4.47;;;;;30.20;96111.00;;;;8357809;28;20647;-70
2022/06/29 15:29:46;;;;;;;5.07;3.90;;;;;30.30;96106.00;;;;8356578;28;20204;-69
2022/06/29 15:42:32;;;;;;;9.13;4.45;;;;;30.60;96096.00;;;;8345704;28;20192;-69
2022/06/29 15:46:36;;;;;;;9.25;4.85;;;;;31.10;96079.00;;;;8350507;28;20701;-69
2022/06/29 15:50:40;;;;;;;4.38;3.97;;;;;31.20;96084.00;;;;8355077;28;20225;-70
2022/06/29 15:59:05;;;;;;;8.75;4.10;;;;;31.20;96078.00;;;;8352638;28;20204;-71
2022/06/29 16:03:08;;;;;;;6.38;4.60;;;;;31.20;96078.00;;;;8352289;28;20290;-70
2022/06/29 16:07:11;;;;;;;4.20;3.80;;;;;31.40;96069.00;;;;8352329;28;20211;-68
2022/06/29 16:11:16;;;;;;;5.75;4.15;;;;;31.50;96059.00;;;;8351182;28;20223;-70
2022/06/29 16:15:19;;;;;;;9.50;3.70;;;;;31.70;96058.00;;;;8350823;28;20240;-70
2022/06/29 16:19:22;;;;;;;7.90;4.50;;;;;32.00;96067.00;;;;8353779;28;20292;-70
2022/06/29 16:23:42;;;;;;;7.15;4.20;;;;;32.00;96056.00;;;;8353015;28;20196;-71
2022/06/29 16:27:50;;;;;;;7.25;4.63;;;;;32.00;96060.00;;;;8352602;28;20296;-71
2022/06/29 16:31:54;;;;;;;9.18;3.78;;;;;31.60;96061.00;;;;8352770;28;20729;-72
2022/06/29 16:35:57;;;;;;;5.63;4.32;;;;;31.30;96051.00;;;;8353668;28;20223;-71
2022/06/29 16:40:00;;;;;;;4.93;3.83;;;;;31.10;96054.00;;;;8349968;28;20204;-71
2022/06/29 16:44:05;;;;;;;4.57;3.92;;;;;31.00;96050.00;;;;8351997;28;20682;-70
2022/06/29 16:48:10;;;;;;;7.90;4.35;;;;;30.90;96047.00;;;;8343684;28;20776;-69
2022/06/29 16:52:13;;;;;;;7.30;3.65;;;;;30.80;96041.00;;;;8350517;28;20319;-71
2022/06/29 16:56:16;;;;;;;6.13;3.72;;;;;30.80;96048.00;;;;8354832;28;20280;-70
2022/06/29 17:00:21;;;;;;;9.52;4.53;;;;;30.80;96044.00;;;;8350752;28;20656;-69
2022/06/29 17:04:24;;;;;;;5.00;4.15;;;;;30.70;96044.00;;;;8352674;28;20240;-70
2022/06/29 17:08:27;;;;;;;6.20;3.95;;;;;30.70;96031.00;;;;8353012;28;20280;-71
2022/06/29 17:12:31;;;;;;;9.60;4.53;;;;;30.70;96035.00;;;;8352909;28;20681;-69
2022/06/29 17:16:35;;;;;;;4.65;3.83;;;;;30.70;96029.00;;;;8354088;28;20203;-68
2022/06/29 17:20:40;;;;;;;5.72;4.00;;;;;30.60;96031.00;;;;8346595;28;20196;-70
2022/06/29 17:24:43;;;;;;;10.50;3.90;;;;;30.40;96025.00;;;;8353791;28;20327;-70
2022/06/29 17:28:46;;;;;;;7.30;3.97;;;;;30.20;96021.00;;;;8355227;28;20220;-69
2022/06/29 17:32:51;;;;;;;7.13;3.70;;;;;30.10;96018.00;;;;8352839;28;20225;-69
2022/06/29 17:36:55;;;;;;;6.15;3.85;;;;;30.10;96024.00;;;;8352151;28;20223;-70
2022/06/29 17:40:58;;;;;;;6.20;4.15;;;;;30.20;96020.00;;;;8349949;28;20197;-71
2022/06/29 17:45:02;;;;;;;6.22;4.20;;;;;30.10;96020.00;;;;8349583;28;20201;-68
2022/06/29 17:49:06;;;;;;;6.85;4.10;;;;;29.80;96019.00;;;;8351780;28;20205;-70
2022/06/29 17:53:10;;;;;;;5.97;4.18;;;;;29.40;96021.00;;;;8352615;28;20227;-69
2022/06/29 17:57:13;;;;;;;5.55;4.38;;;;;29.00;96026.00;;;;8351359;28;20201;-68
2022/06/29 18:01:17;;;;;;;6.55;4.45;;;;;28.50;96033.00;;;;8352354;28;20208;-69
2022/06/29 18:05:21;;;;;;;6.93;4.50;;;;;28.20;96043.00;;;;8352015;28;20280;-69
2022/06/29 18:09:24;;;;;;;7.38;4.35;;;;;27.70;96043.00;;;;8352204;28;20207;-70
2022/06/29 18:13:28;;;;;;;6.18;4.45;;;;;27.50;96042.00;;;;8347682;28;20246;-70
2022/06/29 18:17:31;;;;;;;9.30;4.82;;;;;27.20;96055.00;;;;8352555;28;20283;-68
2022/06/29 18:21:37;;;;;;;5.85;4.40;;;;;26.90;96051.00;;;;8344937;28;20231;-69
2022/06/29 18:25:40;;;;;;;6.75;3.72;;;;;26.70;96056.00;;;;8352158;28;20197;-68
2022/06/29 18:29:43;;;;;;;5.93;4.55;;;;;26.40;96047.00;;;;8350640;28;20292;-68
2022/06/29 18:33:47;;;;;;;7.78;4.22;;;;;26.30;96045.00;;;;8352847;28;20231;-70
2022/06/29 18:37:58;;;;;;;6.82;4.05;;;;;26.10;96042.00;;;;8341166;28;20744;-70
2022/06/29 18:42:07;;;;;;;9.02;4.78;;;;;25.90;96043.00;;;;8340549;28;20243;-70
2022/06/29 18:46:10;;;;;;;10.00;4.82;;;;;25.80;96050.00;;;;8344119;28;20199;-70
2022/06/29 18:50:14;;;;;;;13.63;4.90;;;;;25.60;96043.00;;;;8344872;28;20199;-70
2022/06/29 18:54:18;;;;;;;6.10;5.13;;;;;25.50;96048.00;;;;8344452;28;21634;-68
2022/06/29 18:58:23;;;;;;;14.38;7.40;;;;;25.40;96050.00;;;;8345429;28;20660;-68
2022/06/29 19:02:26;;;;;;;8.15;4.82;;;;;25.30;96050.00;;;;8346971;28;20298;-66
2022/06/29 19:06:30;;;;;;;8.98;4.75;;;;;25.10;96048.00;;;;8342597;28;20205;-67
2022/06/29 19:10:34;;;;;;;7.80;5.30;;;;;24.80;96043.00;;;;8344092;28;20976;-65
2022/06/29 19:14:38;;;;;;;7.35;4.95;;;;;24.70;96050.00;;;;8342175;28;20710;-65
2022/06/29 19:18:41;;;;;;;5.72;4.65;;;;;24.50;96050.00;;;;8344390;28;20793;-65
2022/06/29 19:22:50;;;;;;;9.80;5.13;;;;;24.30;96051.00;;;;8341402;28;20208;-65
2022/06/29 19:26:55;;;;;;;7.80;5.40;;;;;24.10;96053.00;;;;8343923;28;20710;-67
2022/06/29 19:30:58;;;;;;;6.13;5.18;;;;;23.90;96058.00;;;;8344433;28;20197;-68
2022/06/29 19:35:02;;;;;;;9.38;5.40;;;;;23.70;96068.00;;;;8346918;28;20208;-65
2022/06/29 19:39:05;;;;;;;7.85;5.47;;;;;23.60;96071.00;;;;8348188;28;20211;-68
2022/06/29 19:43:10;;;;;;;8.63;5.50;;;;;23.50;96070.00;;;;8348079;28;20197;-63
2022/06/29 19:47:13;;;;;;;9.07;6.05;;;;;23.30;96078.00;;;;8341472;28;20197;-67
2022/06/29 19:51:17;;;;;;;7.38;5.53;;;;;23.10;96080.00;;;;8347589;28;20196;-69
2022/06/29 19:55:20;;;;;;;9.63;6.07;;;;;23.00;96081.00;;;;8349491;28;20232;-64
2022/06/29 19:59:26;;;;;;;11.95;5.80;;;;;22.80;96080.00;;;;8354775;28;20205;-67
2022/06/29 20:03:30;;;;;;;10.75;5.97;;;;;22.60;96077.00;;;;8341717;28;20240;-66
2022/06/29 20:07:33;;;;;;;10.25;5.78;;;;;22.30;96084.00;;;;8345003;28;20363;-67
2022/06/29 20:11:37;;;;;;;12.30;5.90;;;;;22.10;96087.00;;;;8351320;28;20281;-65
2022/06/29 20:15:41;;;;;;;12.75;6.70;;;;;21.90;96078.00;;;;8352471;28;20271;-68
2022/06/29 20:19:44;;;;;;;11.63;6.28;;;;;21.80;96082.00;;;;8352694;28;20634;-67
2022/06/29 20:23:48;;;;;;;6.43;5.40;;;;;21.70;96078.00;;;;8340679;28;20197;-70
2022/06/29 20:27:51;;;;;;;10.18;6.10;;;;;21.60;96077.00;;;;8348131;28;21518;-67
2022/06/29 20:32:00;;;;;;;11.25;6.75;;;;;21.50;96065.00;;;;8344787;28;20223;-65
2022/06/29 20:36:04;;;;;;;13.18;6.88;;;;;21.40;96065.00;;;;8351361;28;20228;-67
2022/06/29 20:40:09;;;;;;;10.68;6.43;;;;;21.40;96066.00;;;;8347092;28;20201;-66
2022/06/29 20:48:34;;;;;;;7.22;6.18;;;;;21.30;96055.00;;;;8347581;28;20200;-67
2022/06/29 20:52:37;;;;;;;11.27;6.40;;;;;21.30;96058.00;;;;8349247;28;20698;-68
2022/06/29 20:56:41;;;;;;;12.23;6.57;;;;;21.30;96048.00;;;;8351826;28;20205;-71
2022/06/29 21:00:44;;;;;;;10.23;6.70;;;;;21.20;96052.00;;;;8350368;28;20205;-70
2022/06/29 21:04:49;;;;;;;10.77;6.15;;;;;21.10;96056.00;;;;8349855;28;20240;-70